sensor_id;sensor_type;location;lat;lon;timestamp;P1;durP1;ratioP1;P2;durP2;ratioP2
22070;SDS011;11200;51.488;6.668;2024-03-02T00:01:58;2.42;;;1.45;;
22070;SDS011;11200;51.488;6.668;2024-03-02T00:04:24;1.90;;;1.55;;
22070;SDS011;11200;51.488;6.668;2024-03-02T00:06:51;2.60;;;1.60;;
22070;SDS011;11200;51.488;6.668;2024-03-02T00:09:19;3.00;;;1.80;;
22070;SDS011;11200;51.488;6.668;2024-03-02T00:11:45;2.28;;;1.60;;
22070;SDS011;11200;51.488;6.668;2024-03-02T00:14:11;2.50;;;1.80;;
22070;SDS011;11200;51.488;6.668;2024-03-02T00:16:37;1.88;;;1.45;;
22070;SDS011;11200;51.488;6.668;2024-03-02T00:19:05;2.80;;;1.70;;
22070;SDS011;11200;51.488;6.668;2024-03-02T00:21:31;2.05;;;1.50;;
22070;SDS011;11200;51.488;6.668;2024-03-02T00:23:58;2.83;;;1.90;;
22070;SDS011;11200;51.488;6.668;2024-03-02T00:26:24;2.35;;;1.58;;
22070;SDS011;11200;51.488;6.668;2024-03-02T00:28:50;2.25;;;1.55;;
22070;SDS011;11200;51.488;6.668;2024-03-02T00:31:20;2.50;;;1.70;;
22070;SDS011;11200;51.488;6.668;2024-03-02T00:33:47;2.65;;;1.52;;
22070;SDS011;11200;51.488;6.668;2024-03-02T00:36:14;3.63;;;1.60;;
22070;SDS011;11200;51.488;6.668;2024-03-02T00:38:44;2.38;;;1.80;;
22070;SDS011;11200;51.488;6.668;2024-03-02T00:41:21;2.63;;;1.70;;
22070;SDS011;11200;51.488;6.668;2024-03-02T00:44:01;2.53;;;1.52;;
22070;SDS011;11200;51.488;6.668;2024-03-02T00:49:01;2.10;;;1.50;;
22070;SDS011;11200;51.488;6.668;2024-03-02T00:51:28;3.58;;;1.60;;
22070;SDS011;11200;51.488;6.668;2024-03-02T00:53:55;2.35;;;1.60;;
22070;SDS011;11200;51.488;6.668;2024-03-02T00:56:22;1.95;;;1.65;;
22070;SDS011;11200;51.488;6.668;2024-03-02T00:58:48;2.33;;;1.67;;
22070;SDS011;11200;51.488;6.668;2024-03-02T01:01:15;2.22;;;1.50;;
22070;SDS011;11200;51.488;6.668;2024-03-02T01:03:41;1.80;;;1.42;;
22070;SDS011;11200;51.488;6.668;2024-03-02T01:06:07;2.55;;;1.70;;
22070;SDS011;11200;51.488;6.668;2024-03-02T01:08:34;2.83;;;1.60;;
22070;SDS011;11200;51.488;6.668;2024-03-02T01:11:00;2.72;;;1.80;;
22070;SDS011;11200;51.488;6.668;2024-03-02T01:13:26;1.85;;;1.40;;
22070;SDS011;11200;51.488;6.668;2024-03-02T01:15:52;2.45;;;1.63;;
22070;SDS011;11200;51.488;6.668;2024-03-02T01:18:18;2.78;;;1.85;;
22070;SDS011;11200;51.488;6.668;2024-03-02T01:20:44;2.35;;;1.63;;
22070;SDS011;11200;51.488;6.668;2024-03-02T01:23:12;2.28;;;1.67;;
22070;SDS011;11200;51.488;6.668;2024-03-02T01:25:38;2.22;;;1.80;;
22070;SDS011;11200;51.488;6.668;2024-03-02T01:28:04;3.15;;;1.75;;
22070;SDS011;11200;51.488;6.668;2024-03-02T01:30:30;1.85;;;1.67;;
22070;SDS011;11200;51.488;6.668;2024-03-02T01:32:56;3.10;;;1.73;;
22070;SDS011;11200;51.488;6.668;2024-03-02T01:35:24;3.28;;;1.73;;
22070;SDS011;11200;51.488;6.668;2024-03-02T01:37:51;3.80;;;1.98;;
22070;SDS011;11200;51.488;6.668;2024-03-02T01:40:17;3.50;;;1.60;;
22070;SDS011;11200;51.488;6.668;2024-03-02T01:42:44;2.78;;;1.65;;
22070;SDS011;11200;51.488;6.668;2024-03-02T01:45:10;2.38;;;1.55;;
22070;SDS011;11200;51.488;6.668;2024-03-02T01:47:36;2.05;;;1.73;;
22070;SDS011;11200;51.488;6.668;2024-03-02T01:50:02;2.67;;;1.60;;
22070;SDS011;11200;51.488;6.668;2024-03-02T01:52:28;3.40;;;1.70;;
22070;SDS011;11200;51.488;6.668;2024-03-02T01:54:54;2.00;;;1.55;;
22070;SDS011;11200;51.488;6.668;2024-03-02T01:57:21;2.38;;;1.63;;
22070;SDS011;11200;51.488;6.668;2024-03-02T01:59:47;2.83;;;1.70;;
22070;SDS011;11200;51.488;6.668;2024-03-02T02:02:13;2.08;;;1.60;;
22070;SDS011;11200;51.488;6.668;2024-03-02T02:04:40;2.15;;;1.50;;
22070;SDS011;11200;51.488;6.668;2024-03-02T02:07:06;2.75;;;1.70;;
22070;SDS011;11200;51.488;6.668;2024-03-02T02:09:32;2.20;;;1.60;;
22070;SDS011;11200;51.488;6.668;2024-03-02T02:11:58;3.03;;;1.77;;
22070;SDS011;11200;51.488;6.668;2024-03-02T02:14:24;2.38;;;1.60;;
22070;SDS011;11200;51.488;6.668;2024-03-02T02:16:50;3.15;;;1.95;;
22070;SDS011;11200;51.488;6.668;2024-03-02T02:19:17;2.17;;;1.70;;
22070;SDS011;11200;51.488;6.668;2024-03-02T02:21:43;2.53;;;1.80;;
22070;SDS011;11200;51.488;6.668;2024-03-02T02:24:09;2.70;;;1.88;;
22070;SDS011;11200;51.488;6.668;2024-03-02T02:26:35;3.42;;;1.85;;
22070;SDS011;11200;51.488;6.668;2024-03-02T02:29:01;3.63;;;1.98;;
22070;SDS011;11200;51.488;6.668;2024-03-02T02:31:28;6.68;;;2.08;;
22070;SDS011;11200;51.488;6.668;2024-03-02T02:34:02;2.67;;;1.90;;
22070;SDS011;11200;51.488;6.668;2024-03-02T02:36:28;3.30;;;1.73;;
22070;SDS011;11200;51.488;6.668;2024-03-02T02:38:54;2.97;;;1.80;;
22070;SDS011;11200;51.488;6.668;2024-03-02T02:41:21;2.55;;;1.73;;
22070;SDS011;11200;51.488;6.668;2024-03-02T02:43:46;4.07;;;2.00;;
22070;SDS011;11200;51.488;6.668;2024-03-02T02:46:13;2.33;;;1.67;;
22070;SDS011;11200;51.488;6.668;2024-03-02T02:48:39;2.95;;;1.85;;
22070;SDS011;11200;51.488;6.668;2024-03-02T02:51:05;2.15;;;1.80;;
22070;SDS011;11200;51.488;6.668;2024-03-02T02:53:32;2.70;;;1.60;;
22070;SDS011;11200;51.488;6.668;2024-03-02T02:56:00;1.85;;;1.65;;
22070;SDS011;11200;51.488;6.668;2024-03-02T02:58:26;2.15;;;1.48;;
22070;SDS011;11200;51.488;6.668;2024-03-02T03:00:52;2.35;;;1.80;;
22070;SDS011;11200;51.488;6.668;2024-03-02T03:03:21;2.40;;;1.45;;
22070;SDS011;11200;51.488;6.668;2024-03-02T03:05:48;2.47;;;1.48;;
22070;SDS011;11200;51.488;6.668;2024-03-02T03:08:14;2.17;;;1.27;;
22070;SDS011;11200;51.488;6.668;2024-03-02T03:10:43;3.83;;;1.52;;
22070;SDS011;11200;51.488;6.668;2024-03-02T03:13:09;1.85;;;1.52;;
22070;SDS011;11200;51.488;6.668;2024-03-02T03:15:35;3.10;;;1.65;;
22070;SDS011;11200;51.488;6.668;2024-03-02T03:18:01;2.10;;;1.60;;
22070;SDS011;11200;51.488;6.668;2024-03-02T03:20:28;2.60;;;1.63;;
22070;SDS011;11200;51.488;6.668;2024-03-02T03:22:55;1.70;;;1.35;;
22070;SDS011;11200;51.488;6.668;2024-03-02T03:25:21;2.15;;;1.60;;
22070;SDS011;11200;51.488;6.668;2024-03-02T03:27:47;2.15;;;1.50;;
22070;SDS011;11200;51.488;6.668;2024-03-02T03:30:13;1.77;;;1.38;;
22070;SDS011;11200;51.488;6.668;2024-03-02T03:32:39;1.73;;;1.50;;
22070;SDS011;11200;51.488;6.668;2024-03-02T03:35:05;2.13;;;1.40;;
22070;SDS011;11200;51.488;6.668;2024-03-02T03:37:32;2.10;;;1.38;;
22070;SDS011;11200;51.488;6.668;2024-03-02T03:39:58;1.77;;;1.60;;
22070;SDS011;11200;51.488;6.668;2024-03-02T03:42:24;2.10;;;1.45;;
22070;SDS011;11200;51.488;6.668;2024-03-02T03:44:51;1.70;;;1.50;;
22070;SDS011;11200;51.488;6.668;2024-03-02T03:47:17;3.80;;;1.50;;
22070;SDS011;11200;51.488;6.668;2024-03-02T03:49:43;2.65;;;1.55;;
22070;SDS011;11200;51.488;6.668;2024-03-02T03:52:09;2.83;;;1.60;;
22070;SDS011;11200;51.488;6.668;2024-03-02T03:54:35;2.08;;;1.40;;
22070;SDS011;11200;51.488;6.668;2024-03-02T03:57:03;2.03;;;1.27;;
22070;SDS011;11200;51.488;6.668;2024-03-02T03:59:29;3.47;;;1.58;;
22070;SDS011;11200;51.488;6.668;2024-03-02T04:01:55;1.73;;;1.30;;
22070;SDS011;11200;51.488;6.668;2024-03-02T04:04:21;2.13;;;1.40;;
22070;SDS011;11200;51.488;6.668;2024-03-02T04:06:47;2.33;;;1.50;;
22070;SDS011;11200;51.488;6.668;2024-03-02T04:09:13;2.15;;;1.45;;
22070;SDS011;11200;51.488;6.668;2024-03-02T04:11:39;1.75;;;1.40;;
22070;SDS011;11200;51.488;6.668;2024-03-02T04:14:06;1.60;;;1.30;;
22070;SDS011;11200;51.488;6.668;2024-03-02T04:16:32;2.30;;;1.45;;
22070;SDS011;11200;51.488;6.668;2024-03-02T04:18:58;1.63;;;1.30;;
22070;SDS011;11200;51.488;6.668;2024-03-02T04:21:24;1.92;;;1.30;;
22070;SDS011;11200;51.488;6.668;2024-03-02T04:23:50;1.88;;;1.17;;
22070;SDS011;11200;51.488;6.668;2024-03-02T04:26:16;1.52;;;1.20;;
22070;SDS011;11200;51.488;6.668;2024-03-02T04:28:47;1.77;;;1.17;;
22070;SDS011;11200;51.488;6.668;2024-03-02T04:31:13;1.88;;;1.27;;
22070;SDS011;11200;51.488;6.668;2024-03-02T04:33:40;1.48;;;1.17;;
22070;SDS011;11200;51.488;6.668;2024-03-02T04:36:06;3.08;;;1.20;;
22070;SDS011;11200;51.488;6.668;2024-03-02T04:38:34;2.08;;;1.15;;
22070;SDS011;11200;51.488;6.668;2024-03-02T04:41:00;1.73;;;1.20;;
22070;SDS011;11200;51.488;6.668;2024-03-02T04:43:26;2.22;;;1.15;;
22070;SDS011;11200;51.488;6.668;2024-03-02T04:45:52;1.55;;;1.23;;
22070;SDS011;11200;51.488;6.668;2024-03-02T04:48:18;2.42;;;1.35;;
22070;SDS011;11200;51.488;6.668;2024-03-02T04:50:44;4.15;;;1.50;;
22070;SDS011;11200;51.488;6.668;2024-03-02T04:53:10;2.05;;;1.30;;
22070;SDS011;11200;51.488;6.668;2024-03-02T04:55:36;2.53;;;1.30;;
22070;SDS011;11200;51.488;6.668;2024-03-02T04:58:22;5.35;;;1.35;;
22070;SDS011;11200;51.488;6.668;2024-03-02T05:00:48;2.75;;;1.23;;
22070;SDS011;11200;51.488;6.668;2024-03-02T05:03:14;3.75;;;1.45;;
22070;SDS011;11200;51.488;6.668;2024-03-02T05:05:40;3.63;;;1.60;;
22070;SDS011;11200;51.488;6.668;2024-03-02T05:08:06;3.08;;;1.27;;
22070;SDS011;11200;51.488;6.668;2024-03-02T05:10:32;3.35;;;1.35;;
22070;SDS011;11200;51.488;6.668;2024-03-02T05:12:58;2.10;;;1.10;;
22070;SDS011;11200;51.488;6.668;2024-03-02T05:15:24;2.90;;;1.30;;
22070;SDS011;11200;51.488;6.668;2024-03-02T05:17:50;2.55;;;1.42;;
22070;SDS011;11200;51.488;6.668;2024-03-02T05:20:16;1.98;;;1.20;;
22070;SDS011;11200;51.488;6.668;2024-03-02T05:22:43;3.72;;;1.40;;
22070;SDS011;11200;51.488;6.668;2024-03-02T05:25:09;1.65;;;1.30;;
22070;SDS011;11200;51.488;6.668;2024-03-02T05:27:35;1.85;;;1.10;;
22070;SDS011;11200;51.488;6.668;2024-03-02T05:30:01;1.67;;;1.20;;
22070;SDS011;11200;51.488;6.668;2024-03-02T05:32:28;1.52;;;1.20;;
22070;SDS011;11200;51.488;6.668;2024-03-02T05:34:54;1.60;;;1.13;;
22070;SDS011;11200;51.488;6.668;2024-03-02T05:37:20;1.88;;;1.20;;
22070;SDS011;11200;51.488;6.668;2024-03-02T05:39:46;2.00;;;1.20;;
22070;SDS011;11200;51.488;6.668;2024-03-02T05:42:12;1.63;;;1.20;;
22070;SDS011;11200;51.488;6.668;2024-03-02T05:44:39;2.25;;;1.25;;
22070;SDS011;11200;51.488;6.668;2024-03-02T05:47:05;2.15;;;1.35;;
22070;SDS011;11200;51.488;6.668;2024-03-02T05:49:33;6.30;;;1.23;;
22070;SDS011;11200;51.488;6.668;2024-03-02T05:51:59;2.97;;;1.42;;
22070;SDS011;11200;51.488;6.668;2024-03-02T05:54:25;8.93;;;1.92;;
22070;SDS011;11200;51.488;6.668;2024-03-02T05:56:51;4.38;;;1.52;;
22070;SDS011;11200;51.488;6.668;2024-03-02T05:59:17;2.42;;;1.50;;
22070;SDS011;11200;51.488;6.668;2024-03-02T06:01:44;3.80;;;1.50;;
22070;SDS011;11200;51.488;6.668;2024-03-02T06:04:11;4.55;;;1.42;;
22070;SDS011;11200;51.488;6.668;2024-03-02T06:06:37;4.25;;;1.90;;
22070;SDS011;11200;51.488;6.668;2024-03-02T06:09:04;4.28;;;1.70;;
22070;SDS011;11200;51.488;6.668;2024-03-02T06:11:36;5.63;;;1.70;;
22070;SDS011;11200;51.488;6.668;2024-03-02T06:14:03;3.20;;;1.80;;
22070;SDS011;11200;51.488;6.668;2024-03-02T06:16:29;4.07;;;1.60;;
22070;SDS011;11200;51.488;6.668;2024-03-02T06:18:55;9.48;;;1.75;;
22070;SDS011;11200;51.488;6.668;2024-03-02T06:21:22;4.82;;;1.58;;
22070;SDS011;11200;51.488;6.668;2024-03-02T06:23:48;4.63;;;1.58;;
22070;SDS011;11200;51.488;6.668;2024-03-02T06:26:14;2.30;;;1.60;;
22070;SDS011;11200;51.488;6.668;2024-03-02T06:28:41;3.60;;;1.55;;
22070;SDS011;11200;51.488;6.668;2024-03-02T06:31:10;3.42;;;1.80;;
22070;SDS011;11200;51.488;6.668;2024-03-02T06:33:36;6.30;;;2.13;;
22070;SDS011;11200;51.488;6.668;2024-03-02T06:36:03;5.40;;;1.73;;
22070;SDS011;11200;51.488;6.668;2024-03-02T06:38:29;2.67;;;2.00;;
22070;SDS011;11200;51.488;6.668;2024-03-02T06:40:57;3.97;;;1.80;;
22070;SDS011;11200;51.488;6.668;2024-03-02T06:43:23;3.67;;;1.92;;
22070;SDS011;11200;51.488;6.668;2024-03-02T06:45:50;4.45;;;2.22;;
22070;SDS011;11200;51.488;6.668;2024-03-02T06:48:16;3.47;;;1.92;;
22070;SDS011;11200;51.488;6.668;2024-03-02T06:50:46;3.67;;;2.30;;
22070;SDS011;11200;51.488;6.668;2024-03-02T06:53:12;4.68;;;2.13;;
22070;SDS011;11200;51.488;6.668;2024-03-02T06:55:38;3.70;;;2.20;;
22070;SDS011;11200;51.488;6.668;2024-03-02T06:58:05;5.80;;;2.28;;
22070;SDS011;11200;51.488;6.668;2024-03-02T07:00:31;4.05;;;1.85;;
22070;SDS011;11200;51.488;6.668;2024-03-02T07:02:57;2.53;;;1.67;;
22070;SDS011;11200;51.488;6.668;2024-03-02T07:05:23;3.17;;;1.83;;
22070;SDS011;11200;51.488;6.668;2024-03-02T07:07:49;2.85;;;1.80;;
22070;SDS011;11200;51.488;6.668;2024-03-02T07:10:15;4.78;;;2.10;;
22070;SDS011;11200;51.488;6.668;2024-03-02T07:12:41;3.80;;;2.00;;
22070;SDS011;11200;51.488;6.668;2024-03-02T07:15:07;3.00;;;1.95;;
22070;SDS011;11200;51.488;6.668;2024-03-02T07:17:43;3.58;;;2.13;;
22070;SDS011;11200;51.488;6.668;2024-03-02T07:20:09;4.15;;;2.30;;
22070;SDS011;11200;51.488;6.668;2024-03-02T07:22:37;3.53;;;2.03;;
22070;SDS011;11200;51.488;6.668;2024-03-02T07:25:04;3.70;;;2.00;;
22070;SDS011;11200;51.488;6.668;2024-03-02T07:27:32;3.03;;;2.10;;
22070;SDS011;11200;51.488;6.668;2024-03-02T07:30:00;4.72;;;2.22;;
22070;SDS011;11200;51.488;6.668;2024-03-02T07:32:26;3.00;;;2.20;;
22070;SDS011;11200;51.488;6.668;2024-03-02T07:34:52;3.97;;;2.15;;
22070;SDS011;11200;51.488;6.668;2024-03-02T07:37:18;3.95;;;2.40;;
22070;SDS011;11200;51.488;6.668;2024-03-02T07:39:45;3.83;;;2.03;;
22070;SDS011;11200;51.488;6.668;2024-03-02T07:42:11;4.90;;;2.22;;
22070;SDS011;11200;51.488;6.668;2024-03-02T07:44:40;3.55;;;2.05;;
22070;SDS011;11200;51.488;6.668;2024-03-02T07:47:06;5.28;;;2.30;;
22070;SDS011;11200;51.488;6.668;2024-03-02T07:49:32;3.65;;;2.28;;
22070;SDS011;11200;51.488;6.668;2024-03-02T07:52:00;3.15;;;2.05;;
22070;SDS011;11200;51.488;6.668;2024-03-02T07:54:26;3.15;;;2.00;;
22070;SDS011;11200;51.488;6.668;2024-03-02T07:56:52;3.10;;;2.15;;
22070;SDS011;11200;51.488;6.668;2024-03-02T07:59:18;2.80;;;1.88;;
22070;SDS011;11200;51.488;6.668;2024-03-02T08:01:44;3.83;;;2.30;;
22070;SDS011;11200;51.488;6.668;2024-03-02T08:04:10;3.38;;;2.00;;
22070;SDS011;11200;51.488;6.668;2024-03-02T08:06:36;4.93;;;2.45;;
22070;SDS011;11200;51.488;6.668;2024-03-02T08:09:02;3.03;;;2.13;;
22070;SDS011;11200;51.488;6.668;2024-03-02T08:11:34;4.00;;;2.25;;
22070;SDS011;11200;51.488;6.668;2024-03-02T08:14:00;3.10;;;2.35;;
22070;SDS011;11200;51.488;6.668;2024-03-02T08:16:26;3.30;;;2.10;;
22070;SDS011;11200;51.488;6.668;2024-03-02T08:18:52;4.15;;;2.50;;
22070;SDS011;11200;51.488;6.668;2024-03-02T08:21:19;3.92;;;2.30;;
22070;SDS011;11200;51.488;6.668;2024-03-02T08:23:45;3.83;;;2.13;;
22070;SDS011;11200;51.488;6.668;2024-03-02T08:26:11;3.70;;;2.30;;
22070;SDS011;11200;51.488;6.668;2024-03-02T08:28:37;3.70;;;2.17;;
22070;SDS011;11200;51.488;6.668;2024-03-02T08:31:07;2.25;;;1.98;;
22070;SDS011;11200;51.488;6.668;2024-03-02T08:33:34;3.22;;;2.25;;
22070;SDS011;11200;51.488;6.668;2024-03-02T08:36:00;3.83;;;2.35;;
22070;SDS011;11200;51.488;6.668;2024-03-02T08:38:27;5.18;;;2.30;;
22070;SDS011;11200;51.488;6.668;2024-03-02T08:40:54;4.10;;;2.28;;
22070;SDS011;11200;51.488;6.668;2024-03-02T08:43:20;2.55;;;2.20;;
22070;SDS011;11200;51.488;6.668;2024-03-02T08:45:47;3.85;;;2.30;;
22070;SDS011;11200;51.488;6.668;2024-03-02T08:48:13;3.22;;;2.35;;
22070;SDS011;11200;51.488;6.668;2024-03-02T08:50:39;2.83;;;2.10;;
22070;SDS011;11200;51.488;6.668;2024-03-02T08:53:05;2.55;;;1.98;;
22070;SDS011;11200;51.488;6.668;2024-03-02T08:55:33;3.90;;;2.17;;
22070;SDS011;11200;51.488;6.668;2024-03-02T08:57:59;3.03;;;2.20;;
22070;SDS011;11200;51.488;6.668;2024-03-02T09:00:25;4.28;;;2.20;;
22070;SDS011;11200;51.488;6.668;2024-03-02T09:02:51;3.95;;;2.20;;
22070;SDS011;11200;51.488;6.668;2024-03-02T09:05:17;2.45;;;2.20;;
22070;SDS011;11200;51.488;6.668;2024-03-02T09:07:43;2.80;;;2.10;;
22070;SDS011;11200;51.488;6.668;2024-03-02T09:10:09;3.15;;;2.03;;
22070;SDS011;11200;51.488;6.668;2024-03-02T09:12:35;2.42;;;2.10;;
22070;SDS011;11200;51.488;6.668;2024-03-02T09:15:01;5.30;;;2.25;;
22070;SDS011;11200;51.488;6.668;2024-03-02T09:17:34;3.28;;;2.10;;
22070;SDS011;11200;51.488;6.668;2024-03-02T09:20:00;2.50;;;1.90;;
22070;SDS011;11200;51.488;6.668;2024-03-02T09:22:26;3.25;;;1.90;;
22070;SDS011;11200;51.488;6.668;2024-03-02T09:24:52;2.63;;;1.83;;
22070;SDS011;11200;51.488;6.668;2024-03-02T09:27:18;3.00;;;1.77;;
22070;SDS011;11200;51.488;6.668;2024-03-02T09:29:44;3.53;;;2.10;;
22070;SDS011;11200;51.488;6.668;2024-03-02T09:32:12;4.40;;;2.00;;
22070;SDS011;11200;51.488;6.668;2024-03-02T09:34:39;2.08;;;1.65;;
22070;SDS011;11200;51.488;6.668;2024-03-02T09:37:05;3.95;;;2.05;;
22070;SDS011;11200;51.488;6.668;2024-03-02T09:39:31;3.05;;;1.85;;
22070;SDS011;11200;51.488;6.668;2024-03-02T09:41:57;2.13;;;1.92;;
22070;SDS011;11200;51.488;6.668;2024-03-02T09:44:24;3.35;;;1.88;;
22070;SDS011;11200;51.488;6.668;2024-03-02T09:46:51;2.50;;;1.55;;
22070;SDS011;11200;51.488;6.668;2024-03-02T09:49:17;2.40;;;1.70;;
22070;SDS011;11200;51.488;6.668;2024-03-02T09:51:46;2.83;;;1.42;;
22070;SDS011;11200;51.488;6.668;2024-03-02T09:54:12;2.15;;;1.48;;
22070;SDS011;11200;51.488;6.668;2024-03-02T09:56:39;2.65;;;1.50;;
22070;SDS011;11200;51.488;6.668;2024-03-02T09:59:05;2.63;;;1.40;;
22070;SDS011;11200;51.488;6.668;2024-03-02T10:01:31;1.55;;;1.35;;
22070;SDS011;11200;51.488;6.668;2024-03-02T10:04:00;2.25;;;1.35;;
22070;SDS011;11200;51.488;6.668;2024-03-02T10:06:27;2.30;;;1.60;;
22070;SDS011;11200;51.488;6.668;2024-03-02T10:08:54;3.22;;;1.58;;
22070;SDS011;11200;51.488;6.668;2024-03-02T10:11:27;1.75;;;1.20;;
22070;SDS011;11200;51.488;6.668;2024-03-02T10:14:09;2.42;;;1.35;;
22070;SDS011;11200;51.488;6.668;2024-03-02T10:16:40;1.67;;;1.20;;
22070;SDS011;11200;51.488;6.668;2024-03-02T10:19:22;2.65;;;1.30;;
22070;SDS011;11200;51.488;6.668;2024-03-02T10:24:15;2.10;;;1.25;;
22070;SDS011;11200;51.488;6.668;2024-03-02T10:26:41;2.05;;;1.17;;
22070;SDS011;11200;51.488;6.668;2024-03-02T10:29:11;1.45;;;0.93;;
22070;SDS011;11200;51.488;6.668;2024-03-02T10:31:37;1.35;;;1.00;;
22070;SDS011;11200;51.488;6.668;2024-03-02T10:34:04;2.58;;;1.08;;
22070;SDS011;11200;51.488;6.668;2024-03-02T10:36:30;2.50;;;1.20;;
22070;SDS011;11200;51.488;6.668;2024-03-02T10:38:56;1.52;;;0.90;;
22070;SDS011;11200;51.488;6.668;2024-03-02T10:41:24;1.88;;;1.02;;
22070;SDS011;11200;51.488;6.668;2024-03-02T10:43:52;1.90;;;0.95;;
22070;SDS011;11200;51.488;6.668;2024-03-02T10:46:27;2.55;;;1.13;;
22070;SDS011;11200;51.488;6.668;2024-03-02T10:48:56;1.20;;;0.90;;
22070;SDS011;11200;51.488;6.668;2024-03-02T10:51:24;2.40;;;1.00;;
22070;SDS011;11200;51.488;6.668;2024-03-02T10:53:51;2.13;;;1.00;;
22070;SDS011;11200;51.488;6.668;2024-03-02T10:56:21;2.25;;;1.25;;
22070;SDS011;11200;51.488;6.668;2024-03-02T10:58:49;3.00;;;1.20;;
22070;SDS011;11200;51.488;6.668;2024-03-02T11:01:16;2.10;;;1.17;;
22070;SDS011;11200;51.488;6.668;2024-03-02T11:03:42;1.33;;;0.90;;
22070;SDS011;11200;51.488;6.668;2024-03-02T11:06:10;1.88;;;1.10;;
22070;SDS011;11200;51.488;6.668;2024-03-02T11:08:37;2.72;;;1.20;;
22070;SDS011;11200;51.488;6.668;2024-03-02T11:11:15;1.33;;;1.00;;
22070;SDS011;11200;51.488;6.668;2024-03-02T11:13:47;2.05;;;1.10;;
22070;SDS011;11200;51.488;6.668;2024-03-02T11:16:32;2.33;;;1.10;;
22070;SDS011;11200;51.488;6.668;2024-03-02T11:19:04;2.33;;;1.30;;
22070;SDS011;11200;51.488;6.668;2024-03-02T11:21:31;2.00;;;1.10;;
22070;SDS011;11200;51.488;6.668;2024-03-02T11:23:58;1.48;;;1.10;;
22070;SDS011;11200;51.488;6.668;2024-03-02T11:26:24;1.10;;;0.85;;
22070;SDS011;11200;51.488;6.668;2024-03-02T11:28:51;1.98;;;0.90;;
22070;SDS011;11200;51.488;6.668;2024-03-02T11:31:17;2.42;;;1.00;;
22070;SDS011;11200;51.488;6.668;2024-03-02T11:33:43;1.23;;;0.90;;
22070;SDS011;11200;51.488;6.668;2024-03-02T11:36:09;1.63;;;1.10;;
22070;SDS011;11200;51.488;6.668;2024-03-02T11:38:35;2.75;;;1.00;;
22070;SDS011;11200;51.488;6.668;2024-03-02T11:41:10;1.83;;;1.00;;
22070;SDS011;11200;51.488;6.668;2024-03-02T11:43:37;1.67;;;0.90;;
22070;SDS011;11200;51.488;6.668;2024-03-02T11:46:06;2.05;;;1.00;;
22070;SDS011;11200;51.488;6.668;2024-03-02T11:48:32;1.98;;;0.93;;
22070;SDS011;11200;51.488;6.668;2024-03-02T11:50:58;0.98;;;0.85;;
22070;SDS011;11200;51.488;6.668;2024-03-02T11:53:26;1.38;;;0.90;;
22070;SDS011;11200;51.488;6.668;2024-03-02T11:55:57;1.67;;;0.98;;
22070;SDS011;11200;51.488;6.668;2024-03-02T11:58:23;1.00;;;0.90;;
22070;SDS011;11200;51.488;6.668;2024-03-02T12:00:56;2.72;;;1.00;;
22070;SDS011;11200;51.488;6.668;2024-03-02T12:03:23;1.42;;;1.08;;
22070;SDS011;11200;51.488;6.668;2024-03-02T12:05:50;2.28;;;1.42;;
22070;SDS011;11200;51.488;6.668;2024-03-02T12:08:17;2.38;;;1.10;;
22070;SDS011;11200;51.488;6.668;2024-03-02T12:10:43;3.25;;;1.40;;
22070;SDS011;11200;51.488;6.668;2024-03-02T12:13:09;3.00;;;1.13;;
22070;SDS011;11200;51.488;6.668;2024-03-02T12:15:36;1.90;;;1.25;;
22070;SDS011;11200;51.488;6.668;2024-03-02T12:18:03;2.10;;;1.20;;
22070;SDS011;11200;51.488;6.668;2024-03-02T12:20:30;2.20;;;1.30;;
22070;SDS011;11200;51.488;6.668;2024-03-02T12:22:59;2.63;;;1.50;;
22070;SDS011;11200;51.488;6.668;2024-03-02T12:25:26;2.70;;;1.40;;
22070;SDS011;11200;51.488;6.668;2024-03-02T12:27:57;3.13;;;1.67;;
22070;SDS011;11200;51.488;6.668;2024-03-02T12:30:26;2.22;;;1.10;;
22070;SDS011;11200;51.488;6.668;2024-03-02T12:32:52;2.40;;;1.23;;
22070;SDS011;11200;51.488;6.668;2024-03-02T12:35:18;1.98;;;1.25;;
22070;SDS011;11200;51.488;6.668;2024-03-02T12:37:45;2.97;;;1.60;;
22070;SDS011;11200;51.488;6.668;2024-03-02T12:40:11;1.67;;;1.30;;
22070;SDS011;11200;51.488;6.668;2024-03-02T12:42:38;1.55;;;1.20;;
22070;SDS011;11200;51.488;6.668;2024-03-02T12:45:05;2.88;;;1.38;;
22070;SDS011;11200;51.488;6.668;2024-03-02T12:47:31;3.03;;;1.30;;
22070;SDS011;11200;51.488;6.668;2024-03-02T12:49:58;2.40;;;1.27;;
22070;SDS011;11200;51.488;6.668;2024-03-02T12:52:24;2.08;;;1.40;;
22070;SDS011;11200;51.488;6.668;2024-03-02T12:54:50;1.65;;;1.33;;
22070;SDS011;11200;51.488;6.668;2024-03-02T12:57:20;2.33;;;1.30;;
22070;SDS011;11200;51.488;6.668;2024-03-02T12:59:46;2.63;;;1.20;;
22070;SDS011;11200;51.488;6.668;2024-03-02T13:02:19;3.42;;;1.58;;
22070;SDS011;11200;51.488;6.668;2024-03-02T13:04:51;3.05;;;1.52;;
22070;SDS011;11200;51.488;6.668;2024-03-02T13:07:18;2.45;;;1.40;;
22070;SDS011;11200;51.488;6.668;2024-03-02T13:09:45;2.13;;;1.20;;
22070;SDS011;11200;51.488;6.668;2024-03-02T13:12:11;1.92;;;1.42;;
22070;SDS011;11200;51.488;6.668;2024-03-02T13:14:37;2.20;;;1.50;;
22070;SDS011;11200;51.488;6.668;2024-03-02T13:17:03;3.13;;;1.23;;
22070;SDS011;11200;51.488;6.668;2024-03-02T13:19:31;3.38;;;1.40;;
22070;SDS011;11200;51.488;6.668;2024-03-02T13:21:57;2.22;;;1.35;;
22070;SDS011;11200;51.488;6.668;2024-03-02T13:24:23;2.90;;;1.75;;
22070;SDS011;11200;51.488;6.668;2024-03-02T13:26:54;1.55;;;1.20;;
22070;SDS011;11200;51.488;6.668;2024-03-02T13:29:22;2.42;;;1.35;;
22070;SDS011;11200;51.488;6.668;2024-03-02T13:31:48;2.97;;;1.20;;
22070;SDS011;11200;51.488;6.668;2024-03-02T13:34:14;2.50;;;1.40;;
22070;SDS011;11200;51.488;6.668;2024-03-02T13:36:40;1.98;;;1.35;;
22070;SDS011;11200;51.488;6.668;2024-03-02T13:39:06;3.67;;;1.23;;
22070;SDS011;11200;51.488;6.668;2024-03-02T13:41:35;1.88;;;1.30;;
22070;SDS011;11200;51.488;6.668;2024-03-02T13:44:01;2.03;;;1.38;;
22070;SDS011;11200;51.488;6.668;2024-03-02T13:46:27;2.65;;;1.75;;
22070;SDS011;11200;51.488;6.668;2024-03-02T13:48:54;1.48;;;1.25;;
22070;SDS011;11200;51.488;6.668;2024-03-02T13:51:20;2.55;;;1.30;;
22070;SDS011;11200;51.488;6.668;2024-03-02T13:53:46;2.78;;;1.48;;
22070;SDS011;11200;51.488;6.668;2024-03-02T13:56:12;1.20;;;1.10;;
22070;SDS011;11200;51.488;6.668;2024-03-02T13:58:38;1.67;;;1.25;;
22070;SDS011;11200;51.488;6.668;2024-03-02T14:01:04;2.45;;;1.50;;
22070;SDS011;11200;51.488;6.668;2024-03-02T14:03:30;1.75;;;1.30;;
22070;SDS011;11200;51.488;6.668;2024-03-02T14:05:57;1.65;;;1.20;;
22070;SDS011;11200;51.488;6.668;2024-03-02T14:08:23;2.47;;;1.45;;
22070;SDS011;11200;51.488;6.668;2024-03-02T14:10:49;1.27;;;1.10;;
22070;SDS011;11200;51.488;6.668;2024-03-02T14:13:16;2.03;;;1.25;;
22070;SDS011;11200;51.488;6.668;2024-03-02T14:15:42;2.35;;;1.50;;
22070;SDS011;11200;51.488;6.668;2024-03-02T14:18:08;1.90;;;1.30;;
22070;SDS011;11200;51.488;6.668;2024-03-02T14:20:35;2.67;;;1.30;;
22070;SDS011;11200;51.488;6.668;2024-03-02T14:23:02;2.63;;;1.00;;
22070;SDS011;11200;51.488;6.668;2024-03-02T14:25:28;1.50;;;1.10;;
22070;SDS011;11200;51.488;6.668;2024-03-02T14:27:56;2.80;;;1.30;;
22070;SDS011;11200;51.488;6.668;2024-03-02T14:30:23;1.95;;;1.10;;
22070;SDS011;11200;51.488;6.668;2024-03-02T14:32:52;1.83;;;1.20;;
22070;SDS011;11200;51.488;6.668;2024-03-02T14:35:17;2.03;;;1.20;;
22070;SDS011;11200;51.488;6.668;2024-03-02T14:37:44;1.77;;;1.13;;
22070;SDS011;11200;51.488;6.668;2024-03-02T14:40:10;2.70;;;1.02;;
22070;SDS011;11200;51.488;6.668;2024-03-02T14:42:37;1.83;;;1.40;;
22070;SDS011;11200;51.488;6.668;2024-03-02T14:45:03;1.08;;;0.90;;
22070;SDS011;11200;51.488;6.668;2024-03-02T14:47:31;2.58;;;1.02;;
22070;SDS011;11200;51.488;6.668;2024-03-02T14:49:58;2.35;;;0.90;;
22070;SDS011;11200;51.488;6.668;2024-03-02T14:52:24;1.48;;;1.00;;